Terminal Aerodrome Forecast
Issued by NWS Chicago, IL

Home | Current Version | Previous Version | Text Only | Print | Product List | Glossary Off
Versions: 1 2 3 4 5 6 7 8 9 10 11 12 13 14 15 16 17 18 19 20 21 22 23 24 25

464
FTUS43 KLOT 060533
TAFRFD
TAF
KRFD 060533Z 0606/0706 19003KT P6SM -SN SCT045 OVC070
     FM060800 21004KT P6SM SCT030 OVC045
     FM061500 23010KT P6SM SCT045 SCT250
     FM070400 21009KT P6SM BKN100 BKN250=

USA.gov is the U.S. government's official web portal to all federal, state and local government web resources and services.